sensor_id;sensor_type;location;lat;lon;timestamp;pressure;altitude;pressure_sealevel;temperature;humidity
19005;BME280;9635;52.078;8.648;2023-05-02T00:01:21;100483.44;;;12.40;68.71
19005;BME280;9635;52.078;8.648;2023-05-02T00:06:24;100475.25;;;12.51;68.34
19005;BME280;9635;52.078;8.648;2023-05-02T00:11:28;100473.50;;;12.41;69.74
19005;BME280;9635;52.078;8.648;2023-05-02T00:16:31;100472.19;;;11.72;78.12
19005;BME280;9635;52.078;8.648;2023-05-02T00:21:33;100478.91;;;11.34;82.54
19005;BME280;9635;52.078;8.648;2023-05-02T00:26:37;100490.09;;;10.96;84.33
19005;BME280;9635;52.078;8.648;2023-05-02T00:31:40;100485.94;;;11.03;85.14
19005;BME280;9635;52.078;8.648;2023-05-02T00:36:43;100486.31;;;10.98;85.33
19005;BME280;9635;52.078;8.648;2023-05-02T00:41:48;100489.59;;;11.02;84.21
19005;BME280;9635;52.078;8.648;2023-05-02T00:46:51;100500.75;;;10.86;84.78
19005;BME280;9635;52.078;8.648;2023-05-02T00:51:54;100493.91;;;10.82;85.68
19005;BME280;9635;52.078;8.648;2023-05-02T00:56:58;100489.59;;;10.91;85.49
19005;BME280;9635;52.078;8.648;2023-05-02T01:02:10;100497.66;;;10.91;86.29
19005;BME280;9635;52.078;8.648;2023-05-02T01:07:33;100498.78;;;10.88;85.85
19005;BME280;9635;52.078;8.648;2023-05-02T01:12:41;100497.06;;;10.87;86.18
19005;BME280;9635;52.078;8.648;2023-05-02T01:17:46;100502.94;;;10.70;83.63
19005;BME280;9635;52.078;8.648;2023-05-02T01:22:50;100508.53;;;10.55;82.70
19005;BME280;9635;52.078;8.648;2023-05-02T01:28:04;100508.78;;;10.64;82.81
19005;BME280;9635;52.078;8.648;2023-05-02T01:33:13;100516.75;;;10.76;80.58
19005;BME280;9635;52.078;8.648;2023-05-02T01:38:18;100509.41;;;10.78;79.48
19005;BME280;9635;52.078;8.648;2023-05-02T01:43:23;100519.31;;;11.00;78.50
19005;BME280;9635;52.078;8.648;2023-05-02T01:48:29;100505.84;;;11.12;77.73
19005;BME280;9635;52.078;8.648;2023-05-02T01:53:32;100518.03;;;11.27;78.60
19005;BME280;9635;52.078;8.648;2023-05-02T01:58:37;100525.88;;;11.19;78.76
19005;BME280;9635;52.078;8.648;2023-05-02T02:03:43;100539.44;;;11.28;79.89
19005;BME280;9635;52.078;8.648;2023-05-02T02:08:46;100547.03;;;11.12;78.58
19005;BME280;9635;52.078;8.648;2023-05-02T02:13:56;100558.53;;;11.14;77.30
19005;BME280;9635;52.078;8.648;2023-05-02T02:19:05;100557.28;;;10.73;77.36
19005;BME280;9635;52.078;8.648;2023-05-02T02:24:10;100566.81;;;10.20;77.43
19005;BME280;9635;52.078;8.648;2023-05-02T02:29:14;100567.28;;;10.71;75.53
19005;BME280;9635;52.078;8.648;2023-05-02T02:34:18;100563.88;;;10.69;75.61
19005;BME280;9635;52.078;8.648;2023-05-02T02:39:31;100568.25;;;10.48;75.59
19005;BME280;9635;52.078;8.648;2023-05-02T02:44:42;100575.16;;;10.39;76.17
19005;BME280;9635;52.078;8.648;2023-05-02T02:50:01;100588.09;;;11.03;75.15
19005;BME280;9635;52.078;8.648;2023-05-02T02:55:11;100592.34;;;10.83;75.09
19005;BME280;9635;52.078;8.648;2023-05-02T03:00:16;100591.03;;;11.00;74.41
19005;BME280;9635;52.078;8.648;2023-05-02T03:05:23;100598.66;;;10.59;75.45
19005;BME280;9635;52.078;8.648;2023-05-02T03:10:26;100597.41;;;10.41;75.77
19005;BME280;9635;52.078;8.648;2023-05-02T03:16:07;100603.00;;;10.03;76.36
19005;BME280;9635;52.078;8.648;2023-05-02T03:21:16;100609.34;;;10.83;75.04
19005;BME280;9635;52.078;8.648;2023-05-02T03:26:20;100621.47;;;10.43;75.19
19005;BME280;9635;52.078;8.648;2023-05-02T03:31:24;100620.22;;;10.35;76.23
19005;BME280;9635;52.078;8.648;2023-05-02T03:36:29;100631.41;;;10.65;75.58
19005;BME280;9635;52.078;8.648;2023-05-02T03:41:32;100626.50;;;10.58;75.79
19005;BME280;9635;52.078;8.648;2023-05-02T03:46:40;100631.44;;;10.76;75.61
19005;BME280;9635;52.078;8.648;2023-05-02T03:51:47;100634.94;;;10.54;75.90
19005;BME280;9635;52.078;8.648;2023-05-02T03:56:55;100636.47;;;10.92;74.76
19005;BME280;9635;52.078;8.648;2023-05-02T04:02:03;100644.22;;;10.72;74.61
19005;BME280;9635;52.078;8.648;2023-05-02T04:07:15;100654.66;;;10.42;76.42
19005;BME280;9635;52.078;8.648;2023-05-02T04:12:24;100664.88;;;10.01;79.45
19005;BME280;9635;52.078;8.648;2023-05-02T04:17:27;100665.25;;;10.32;79.82
19005;BME280;9635;52.078;8.648;2023-05-02T04:22:32;100681.69;;;10.51;79.43
19005;BME280;9635;52.078;8.648;2023-05-02T04:27:38;100674.56;;;10.50;79.39
19005;BME280;9635;52.078;8.648;2023-05-02T04:32:45;100684.56;;;10.37;79.56
19005;BME280;9635;52.078;8.648;2023-05-02T04:37:50;100697.94;;;10.26;79.89
19005;BME280;9635;52.078;8.648;2023-05-02T04:42:53;100702.94;;;10.06;82.13
19005;BME280;9635;52.078;8.648;2023-05-02T04:47:58;100706.59;;;10.29;82.43
19005;BME280;9635;52.078;8.648;2023-05-02T04:53:03;100718.09;;;10.31;82.20
19005;BME280;9635;52.078;8.648;2023-05-02T04:58:07;100726.94;;;10.21;81.94
19005;BME280;9635;52.078;8.648;2023-05-02T05:03:10;100739.47;;;9.83;83.15
19005;BME280;9635;52.078;8.648;2023-05-02T05:08:14;100744.00;;;9.96;84.89
19005;BME280;9635;52.078;8.648;2023-05-02T05:13:17;100744.88;;;8.81;89.73
19005;BME280;9635;52.078;8.648;2023-05-02T05:18:22;100749.06;;;9.75;87.68
19005;BME280;9635;52.078;8.648;2023-05-02T05:23:26;100754.28;;;9.76;87.73
19005;BME280;9635;52.078;8.648;2023-05-02T05:28:29;100766.31;;;9.70;88.32
19005;BME280;9635;52.078;8.648;2023-05-02T05:33:32;100777.59;;;9.76;87.47
19005;BME280;9635;52.078;8.648;2023-05-02T05:38:38;100800.22;;;9.46;87.27
19005;BME280;9635;52.078;8.648;2023-05-02T05:43:43;100817.59;;;9.40;87.19
19005;BME280;9635;52.078;8.648;2023-05-02T05:48:46;100830.81;;;9.31;86.35
19005;BME280;9635;52.078;8.648;2023-05-02T05:53:50;100865.44;;;8.94;85.57
19005;BME280;9635;52.078;8.648;2023-05-02T05:58:53;100860.34;;;8.76;86.12
19005;BME280;9635;52.078;8.648;2023-05-02T06:03:56;100875.97;;;8.70;86.11
19005;BME280;9635;52.078;8.648;2023-05-02T06:09:01;100890.53;;;8.66;86.30
19005;BME280;9635;52.078;8.648;2023-05-02T06:14:06;100890.53;;;8.66;86.18
19005;BME280;9635;52.078;8.648;2023-05-02T06:19:10;100900.47;;;8.64;86.16
19005;BME280;9635;52.078;8.648;2023-05-02T06:24:14;100917.13;;;8.54;86.07
19005;BME280;9635;52.078;8.648;2023-05-02T06:29:17;100921.63;;;8.54;85.95
19005;BME280;9635;52.078;8.648;2023-05-02T06:34:20;100932.63;;;8.49;85.79
19005;BME280;9635;52.078;8.648;2023-05-02T06:39:24;100940.56;;;8.51;85.55
19005;BME280;9635;52.078;8.648;2023-05-02T06:44:27;100952.31;;;8.63;85.99
19005;BME280;9635;52.078;8.648;2023-05-02T06:49:30;100954.41;;;8.72;85.71
19005;BME280;9635;52.078;8.648;2023-05-02T06:54:34;100965.69;;;8.77;85.05
19005;BME280;9635;52.078;8.648;2023-05-02T06:59:36;100984.88;;;8.98;85.11
19005;BME280;9635;52.078;8.648;2023-05-02T07:04:39;100998.94;;;9.01;84.34
19005;BME280;9635;52.078;8.648;2023-05-02T07:09:43;101004.31;;;8.87;83.66
19005;BME280;9635;52.078;8.648;2023-05-02T07:14:46;100997.38;;;8.70;80.63
19005;BME280;9635;52.078;8.648;2023-05-02T07:19:49;101014.75;;;8.77;79.68
19005;BME280;9635;52.078;8.648;2023-05-02T07:24:57;101026.06;;;9.24;77.97
19005;BME280;9635;52.078;8.648;2023-05-02T07:30:00;101038.47;;;9.39;77.22
19005;BME280;9635;52.078;8.648;2023-05-02T07:35:04;101041.03;;;9.14;74.65
19005;BME280;9635;52.078;8.648;2023-05-02T07:40:09;101045.69;;;9.24;72.95
19005;BME280;9635;52.078;8.648;2023-05-02T07:45:12;101062.41;;;9.42;73.21
19005;BME280;9635;52.078;8.648;2023-05-02T07:50:15;101064.47;;;9.51;73.37
19005;BME280;9635;52.078;8.648;2023-05-02T07:55:19;101065.59;;;9.62;74.59
19005;BME280;9635;52.078;8.648;2023-05-02T08:00:22;101067.69;;;9.57;71.89
19005;BME280;9635;52.078;8.648;2023-05-02T08:05:25;101071.66;;;9.51;69.96
19005;BME280;9635;52.078;8.648;2023-05-02T08:10:29;101078.41;;;9.71;71.95
19005;BME280;9635;52.078;8.648;2023-05-02T08:15:32;101100.03;;;9.68;69.78
19005;BME280;9635;52.078;8.648;2023-05-02T08:20:35;101107.38;;;9.51;71.31
19005;BME280;9635;52.078;8.648;2023-05-02T08:25:40;101110.66;;;9.42;70.68
19005;BME280;9635;52.078;8.648;2023-05-02T08:30:44;101118.09;;;9.51;72.17
19005;BME280;9635;52.078;8.648;2023-05-02T08:35:47;101124.47;;;9.36;69.55
19005;BME280;9635;52.078;8.648;2023-05-02T08:40:51;101133.66;;;9.32;68.83
19005;BME280;9635;52.078;8.648;2023-05-02T08:45:57;101145.53;;;9.42;69.65
19005;BME280;9635;52.078;8.648;2023-05-02T08:51:01;101141.66;;;9.61;71.59
19005;BME280;9635;52.078;8.648;2023-05-02T08:56:07;101150.47;;;9.63;68.16
19005;BME280;9635;52.078;8.648;2023-05-02T09:01:13;101153.72;;;10.22;67.06
19005;BME280;9635;52.078;8.648;2023-05-02T09:06:18;101156.78;;;10.03;60.17
19005;BME280;9635;52.078;8.648;2023-05-02T09:11:23;101159.09;;;10.22;61.95
19005;BME280;9635;52.078;8.648;2023-05-02T09:16:26;101169.47;;;10.01;60.93
19005;BME280;9635;52.078;8.648;2023-05-02T09:21:35;101191.53;;;10.72;61.19
19005;BME280;9635;52.078;8.648;2023-05-02T09:26:39;101196.94;;;10.84;60.59
19005;BME280;9635;52.078;8.648;2023-05-02T09:31:45;101193.53;;;10.55;60.43
19005;BME280;9635;52.078;8.648;2023-05-02T09:36:57;101198.31;;;10.77;60.52
19005;BME280;9635;52.078;8.648;2023-05-02T09:42:01;101203.31;;;11.22;61.59
19005;BME280;9635;52.078;8.648;2023-05-02T09:47:04;101220.13;;;10.86;55.60
19005;BME280;9635;52.078;8.648;2023-05-02T09:52:10;101219.72;;;10.79;59.82
19005;BME280;9635;52.078;8.648;2023-05-02T09:57:14;101233.41;;;11.40;55.88
19005;BME280;9635;52.078;8.648;2023-05-02T10:02:18;101234.06;;;11.31;57.49
19005;BME280;9635;52.078;8.648;2023-05-02T10:07:22;101231.97;;;11.60;55.75
19005;BME280;9635;52.078;8.648;2023-05-02T10:12:28;101247.94;;;11.50;53.94
19005;BME280;9635;52.078;8.648;2023-05-02T10:17:38;101244.84;;;11.93;54.90
19005;BME280;9635;52.078;8.648;2023-05-02T10:22:44;101249.41;;;11.67;51.11
19005;BME280;9635;52.078;8.648;2023-05-02T10:27:48;101248.69;;;12.02;51.87
19005;BME280;9635;52.078;8.648;2023-05-02T10:32:52;101257.94;;;12.10;51.36
19005;BME280;9635;52.078;8.648;2023-05-02T10:37:55;101273.25;;;11.97;51.62
19005;BME280;9635;52.078;8.648;2023-05-02T10:43:01;101265.44;;;12.18;50.83
19005;BME280;9635;52.078;8.648;2023-05-02T10:48:16;101262.47;;;12.34;51.35
19005;BME280;9635;52.078;8.648;2023-05-02T10:53:27;101273.72;;;11.78;50.46
19005;BME280;9635;52.078;8.648;2023-05-02T10:58:31;101275.47;;;12.29;49.59
19005;BME280;9635;52.078;8.648;2023-05-02T11:03:54;101271.38;;;12.47;48.46
19005;BME280;9635;52.078;8.648;2023-05-02T11:09:29;101275.06;;;12.81;49.00
19005;BME280;9635;52.078;8.648;2023-05-02T11:14:43;101280.94;;;12.75;48.45
19005;BME280;9635;52.078;8.648;2023-05-02T11:25:35;101278.94;;;13.01;45.12
19005;BME280;9635;52.078;8.648;2023-05-02T11:30:41;101276.50;;;13.21;46.26
19005;BME280;9635;52.078;8.648;2023-05-02T11:35:45;101278.22;;;14.23;42.16
19005;BME280;9635;52.078;8.648;2023-05-02T11:40:54;101271.75;;;15.53;40.99
19005;BME280;9635;52.078;8.648;2023-05-02T11:45:59;101280.88;;;16.33;38.77
19005;BME280;9635;52.078;8.648;2023-05-02T11:51:03;101282.50;;;15.43;40.98
19005;BME280;9635;52.078;8.648;2023-05-02T11:56:07;101293.53;;;14.02;40.48
19005;BME280;9635;52.078;8.648;2023-05-02T12:01:14;101301.56;;;13.34;41.45
19005;BME280;9635;52.078;8.648;2023-05-02T12:06:17;101307.28;;;13.76;43.60
19005;BME280;9635;52.078;8.648;2023-05-02T12:11:22;101313.91;;;13.83;42.03
19005;BME280;9635;52.078;8.648;2023-05-02T12:16:26;101328.22;;;13.03;43.50
19005;BME280;9635;52.078;8.648;2023-05-02T12:21:29;101330.88;;;12.92;43.08
19005;BME280;9635;52.078;8.648;2023-05-02T12:26:33;101337.47;;;13.23;41.75
19005;BME280;9635;52.078;8.648;2023-05-02T12:31:37;101345.22;;;11.31;43.54
19005;BME280;9635;52.078;8.648;2023-05-02T12:36:42;101339.00;;;12.68;43.12
19005;BME280;9635;52.078;8.648;2023-05-02T12:41:45;101345.81;;;13.78;40.79
19005;BME280;9635;52.078;8.648;2023-05-02T12:46:59;101349.38;;;13.90;38.97
19005;BME280;9635;52.078;8.648;2023-05-02T12:52:02;101345.22;;;13.86;40.41
19005;BME280;9635;52.078;8.648;2023-05-02T12:57:05;101347.97;;;14.95;39.00
19005;BME280;9635;52.078;8.648;2023-05-02T13:02:11;101358.06;;;13.71;40.86
19005;BME280;9635;52.078;8.648;2023-05-02T13:07:13;101371.22;;;14.32;40.05
19005;BME280;9635;52.078;8.648;2023-05-02T13:12:16;101369.88;;;14.04;40.32
19005;BME280;9635;52.078;8.648;2023-05-02T13:17:20;101368.22;;;13.45;39.76
19005;BME280;9635;52.078;8.648;2023-05-02T13:22:23;101370.63;;;13.01;38.49
19005;BME280;9635;52.078;8.648;2023-05-02T13:27:26;101378.44;;;15.30;37.39
19005;BME280;9635;52.078;8.648;2023-05-02T13:32:30;101370.19;;;16.04;34.40
19005;BME280;9635;52.078;8.648;2023-05-02T13:37:33;101384.13;;;14.40;38.82
19005;BME280;9635;52.078;8.648;2023-05-02T13:42:36;101378.53;;;14.75;38.57
19005;BME280;9635;52.078;8.648;2023-05-02T13:47:40;101382.66;;;13.90;39.25
19005;BME280;9635;52.078;8.648;2023-05-02T13:52:43;101393.72;;;13.05;40.70
19005;BME280;9635;52.078;8.648;2023-05-02T13:57:49;101401.06;;;13.74;41.04
19005;BME280;9635;52.078;8.648;2023-05-02T14:02:53;101407.47;;;14.29;39.22
19005;BME280;9635;52.078;8.648;2023-05-02T14:07:56;101398.63;;;14.05;39.82
19005;BME280;9635;52.078;8.648;2023-05-02T14:12:59;101398.56;;;13.71;40.68
19005;BME280;9635;52.078;8.648;2023-05-02T14:18:03;101409.44;;;14.16;39.14
19005;BME280;9635;52.078;8.648;2023-05-02T14:23:06;101402.38;;;14.70;37.98
19005;BME280;9635;52.078;8.648;2023-05-02T14:28:09;101406.72;;;14.27;39.12
19005;BME280;9635;52.078;8.648;2023-05-02T14:33:13;101421.91;;;13.72;39.57
19005;BME280;9635;52.078;8.648;2023-05-02T14:38:16;101421.91;;;13.72;39.08
19005;BME280;9635;52.078;8.648;2023-05-02T14:43:20;101417.66;;;13.92;38.55
19005;BME280;9635;52.078;8.648;2023-05-02T14:48:24;101422.28;;;13.79;38.86
19005;BME280;9635;52.078;8.648;2023-05-02T14:53:27;101420.44;;;13.79;40.08
19005;BME280;9635;52.078;8.648;2023-05-02T14:58:30;101424.41;;;13.16;40.53
19005;BME280;9635;52.078;8.648;2023-05-02T15:03:34;101425.66;;;13.47;39.78
19005;BME280;9635;52.078;8.648;2023-05-02T15:08:57;101427.19;;;13.38;39.70
19005;BME280;9635;52.078;8.648;2023-05-02T15:13:59;101413.56;;;13.75;38.21
19005;BME280;9635;52.078;8.648;2023-05-02T15:19:04;101424.69;;;13.59;38.14
19005;BME280;9635;52.078;8.648;2023-05-02T15:24:06;101429.97;;;12.41;39.72
19005;BME280;9635;52.078;8.648;2023-05-02T15:29:09;101432.28;;;13.30;39.55
19005;BME280;9635;52.078;8.648;2023-05-02T15:34:14;101420.81;;;13.75;39.56
19005;BME280;9635;52.078;8.648;2023-05-02T15:39:16;101429.56;;;13.19;39.21
19005;BME280;9635;52.078;8.648;2023-05-02T15:44:19;101438.38;;;12.36;41.04
19005;BME280;9635;52.078;8.648;2023-05-02T15:49:24;101431.38;;;12.94;40.16
19005;BME280;9635;52.078;8.648;2023-05-02T15:54:32;101430.81;;;13.26;40.43
19005;BME280;9635;52.078;8.648;2023-05-02T15:59:34;101425.25;;;13.40;39.88
19005;BME280;9635;52.078;8.648;2023-05-02T16:04:38;101425.25;;;13.40;40.68
19005;BME280;9635;52.078;8.648;2023-05-02T16:09:43;101435.09;;;13.41;39.94
19005;BME280;9635;52.078;8.648;2023-05-02T16:14:46;101431.91;;;12.99;39.51
19005;BME280;9635;52.078;8.648;2023-05-02T16:19:50;101444.97;;;13.05;40.83
19005;BME280;9635;52.078;8.648;2023-05-02T16:24:53;101448.09;;;12.99;40.84
19005;BME280;9635;52.078;8.648;2023-05-02T16:29:57;101450.06;;;12.97;41.32
19005;BME280;9635;52.078;8.648;2023-05-02T16:35:02;101449.09;;;12.98;41.35
19005;BME280;9635;52.078;8.648;2023-05-02T16:40:08;101438.56;;;12.82;41.46
19005;BME280;9635;52.078;8.648;2023-05-02T16:45:11;101453.75;;;12.59;41.02
19005;BME280;9635;52.078;8.648;2023-05-02T16:50:16;101453.00;;;12.45;40.91
19005;BME280;9635;52.078;8.648;2023-05-02T16:55:19;101464.34;;;12.37;41.02
19005;BME280;9635;52.078;8.648;2023-05-02T17:00:22;101466.69;;;12.16;41.00
19005;BME280;9635;52.078;8.648;2023-05-02T17:05:26;101473.38;;;12.10;41.83
19005;BME280;9635;52.078;8.648;2023-05-02T17:10:29;101476.81;;;11.87;43.05
19005;BME280;9635;52.078;8.648;2023-05-02T17:15:35;101482.72;;;11.66;43.40
19005;BME280;9635;52.078;8.648;2023-05-02T17:20:41;101488.44;;;11.75;43.24
19005;BME280;9635;52.078;8.648;2023-05-02T17:25:43;101484.34;;;11.82;44.16
19005;BME280;9635;52.078;8.648;2023-05-02T17:30:47;101487.13;;;11.67;42.96
19005;BME280;9635;52.078;8.648;2023-05-02T17:35:56;101489.25;;;11.49;42.89
19005;BME280;9635;52.078;8.648;2023-05-02T17:40:59;101498.03;;;11.39;43.25
19005;BME280;9635;52.078;8.648;2023-05-02T17:46:07;101491.09;;;11.22;43.21
19005;BME280;9635;52.078;8.648;2023-05-02T17:51:12;101498.69;;;11.15;43.93
19005;BME280;9635;52.078;8.648;2023-05-02T17:56:14;101505.50;;;11.06;44.20
19005;BME280;9635;52.078;8.648;2023-05-02T18:01:19;101502.94;;;10.91;44.33
19005;BME280;9635;52.078;8.648;2023-05-02T18:06:23;101499.31;;;10.77;44.85
19005;BME280;9635;52.078;8.648;2023-05-02T18:11:28;101505.75;;;10.75;45.35
19005;BME280;9635;52.078;8.648;2023-05-02T18:16:32;101513.06;;;10.73;45.17
19005;BME280;9635;52.078;8.648;2023-05-02T18:21:38;101509.50;;;10.72;45.26
19005;BME280;9635;52.078;8.648;2023-05-02T18:26:41;101516.81;;;10.70;45.50
19005;BME280;9635;52.078;8.648;2023-05-02T18:31:44;101519.22;;;10.46;45.69
19005;BME280;9635;52.078;8.648;2023-05-02T18:36:57;101515.09;;;10.55;46.39
19005;BME280;9635;52.078;8.648;2023-05-02T18:42:00;101516.06;;;10.39;46.20
19005;BME280;9635;52.078;8.648;2023-05-02T18:47:04;101519.69;;;10.38;46.66
19005;BME280;9635;52.078;8.648;2023-05-02T18:52:08;101523.50;;;10.20;47.24
19005;BME280;9635;52.078;8.648;2023-05-02T18:57:11;101531.16;;;10.12;47.94
19005;BME280;9635;52.078;8.648;2023-05-02T19:02:14;101536.84;;;10.07;48.00
19005;BME280;9635;52.078;8.648;2023-05-02T19:07:18;101525.72;;;9.99;48.39
19005;BME280;9635;52.078;8.648;2023-05-02T19:12:21;101538.13;;;9.86;48.92
19005;BME280;9635;52.078;8.648;2023-05-02T19:17:24;101545.53;;;9.97;48.90
19005;BME280;9635;52.078;8.648;2023-05-02T19:22:28;101551.38;;;9.89;49.56
19005;BME280;9635;52.078;8.648;2023-05-02T19:27:34;101546.59;;;9.94;49.13
19005;BME280;9635;52.078;8.648;2023-05-02T19:32:36;101550.81;;;9.98;49.15
19005;BME280;9635;52.078;8.648;2023-05-02T19:37:41;101562.13;;;10.03;49.07
19005;BME280;9635;52.078;8.648;2023-05-02T19:42:44;101571.16;;;10.02;49.39
19005;BME280;9635;52.078;8.648;2023-05-02T19:47:47;101585.63;;;10.00;49.22
19005;BME280;9635;52.078;8.648;2023-05-02T19:52:51;101584.09;;;9.96;49.47
19005;BME280;9635;52.078;8.648;2023-05-02T19:57:54;101585.41;;;9.88;49.12
19005;BME280;9635;52.078;8.648;2023-05-02T20:02:57;101590.91;;;9.85;49.17
19005;BME280;9635;52.078;8.648;2023-05-02T20:08:01;101578.25;;;9.57;49.54
19005;BME280;9635;52.078;8.648;2023-05-02T20:13:04;101587.25;;;9.56;49.28
19005;BME280;9635;52.078;8.648;2023-05-02T20:18:07;101587.69;;;9.48;49.50
19005;BME280;9635;52.078;8.648;2023-05-02T20:23:11;101600.41;;;9.45;49.93
19005;BME280;9635;52.078;8.648;2023-05-02T20:28:14;101607.00;;;9.39;50.01
19005;BME280;9635;52.078;8.648;2023-05-02T20:33:17;101605.44;;;9.35;49.96
19005;BME280;9635;52.078;8.648;2023-05-02T20:38:22;101621.69;;;9.32;49.95
19005;BME280;9635;52.078;8.648;2023-05-02T20:43:25;101623.50;;;9.32;50.36
19005;BME280;9635;52.078;8.648;2023-05-02T20:48:29;101614.66;;;9.29;50.37
19005;BME280;9635;52.078;8.648;2023-05-02T20:53:34;101619.34;;;9.26;50.55
19005;BME280;9635;52.078;8.648;2023-05-02T20:58:37;101624.44;;;9.15;50.88
19005;BME280;9635;52.078;8.648;2023-05-02T21:03:39;101617.78;;;9.06;51.58
19005;BME280;9635;52.078;8.648;2023-05-02T21:08:43;101630.81;;;8.80;52.35
19005;BME280;9635;52.078;8.648;2023-05-02T21:13:46;101626.75;;;8.89;51.79
19005;BME280;9635;52.078;8.648;2023-05-02T21:18:49;101626.63;;;9.08;51.75
19005;BME280;9635;52.078;8.648;2023-05-02T21:23:53;101630.31;;;9.05;51.83
19005;BME280;9635;52.078;8.648;2023-05-02T21:28:56;101617.84;;;9.04;51.83
19005;BME280;9635;52.078;8.648;2023-05-02T21:34:00;101626.25;;;8.98;52.09
19005;BME280;9635;52.078;8.648;2023-05-02T21:39:05;101626.75;;;8.89;52.55
19005;BME280;9635;52.078;8.648;2023-05-02T21:44:09;101627.66;;;8.72;52.87
19005;BME280;9635;52.078;8.648;2023-05-02T21:49:14;101626.88;;;8.53;53.53
19005;BME280;9635;52.078;8.648;2023-05-02T21:54:19;101633.03;;;8.37;53.86
19005;BME280;9635;52.078;8.648;2023-05-02T21:59:22;101624.59;;;8.28;54.25
19005;BME280;9635;52.078;8.648;2023-05-02T22:04:29;101631.69;;;8.11;54.82
19005;BME280;9635;52.078;8.648;2023-05-02T22:09:33;101637.44;;;8.04;55.34
19005;BME280;9635;52.078;8.648;2023-05-02T22:14:36;101632.06;;;7.86;55.63
19005;BME280;9635;52.078;8.648;2023-05-02T22:19:47;101632.69;;;7.74;55.94
19005;BME280;9635;52.078;8.648;2023-05-02T22:24:51;101641.47;;;7.76;56.14
19005;BME280;9635;52.078;8.648;2023-05-02T22:29:54;101648.16;;;7.67;56.24
19005;BME280;9635;52.078;8.648;2023-05-02T22:34:57;101661.13;;;7.58;56.70
19005;BME280;9635;52.078;8.648;2023-05-02T22:40:01;101669.16;;;7.39;56.97
19005;BME280;9635;52.078;8.648;2023-05-02T22:45:05;101657.75;;;7.35;57.15
19005;BME280;9635;52.078;8.648;2023-05-02T22:50:10;101658.38;;;7.21;57.08
19005;BME280;9635;52.078;8.648;2023-05-02T22:55:15;101666.41;;;7.21;57.59
19005;BME280;9635;52.078;8.648;2023-05-02T23:00:18;101666.81;;;7.12;57.79
19005;BME280;9635;52.078;8.648;2023-05-02T23:05:22;101667.66;;;7.13;57.81
19005;BME280;9635;52.078;8.648;2023-05-02T23:10:27;101658.28;;;7.04;58.26
19005;BME280;9635;52.078;8.648;2023-05-02T23:15:29;101659.53;;;6.97;58.68
19005;BME280;9635;52.078;8.648;2023-05-02T23:20:32;101658.78;;;6.93;58.94
19005;BME280;9635;52.078;8.648;2023-05-02T23:25:37;101670.72;;;6.84;59.00
19005;BME280;9635;52.078;8.648;2023-05-02T23:30:40;101679.06;;;6.77;59.24
19005;BME280;9635;52.078;8.648;2023-05-02T23:35:43;101667.00;;;6.68;59.51
19005;BME280;9635;52.078;8.648;2023-05-02T23:40:47;101667.19;;;6.63;59.55
19005;BME280;9635;52.078;8.648;2023-05-02T23:45:50;101654.09;;;6.57;59.73
19005;BME280;9635;52.078;8.648;2023-05-02T23:50:52;101659.19;;;6.43;60.07
19005;BME280;9635;52.078;8.648;2023-05-02T23:55:57;101671.19;;;6.33;60.41
